sensor_id;sensor_type;location;lat;lon;timestamp;P1;durP1;ratioP1;P2;durP2;ratioP2
68212;SDS011;55035;47.792;8.724;2022-08-21T00:00:16;20.80;;;2.30;;
68212;SDS011;55035;47.792;8.724;2022-08-21T00:02:47;27.15;;;2.72;;
68212;SDS011;55035;47.792;8.724;2022-08-21T00:05:14;9.83;;;1.90;;
68212;SDS011;55035;47.792;8.724;2022-08-21T00:07:41;7.32;;;2.58;;
68212;SDS011;55035;47.792;8.724;2022-08-21T00:10:08;8.18;;;2.63;;
68212;SDS011;55035;47.792;8.724;2022-08-21T00:12:37;10.52;;;2.33;;
68212;SDS011;55035;47.792;8.724;2022-08-21T00:15:05;11.32;;;2.65;;
68212;SDS011;55035;47.792;8.724;2022-08-21T00:17:31;11.07;;;2.50;;
68212;SDS011;55035;47.792;8.724;2022-08-21T00:19:58;7.60;;;2.35;;
68212;SDS011;55035;47.792;8.724;2022-08-21T00:22:25;14.15;;;2.50;;
68212;SDS011;55035;47.792;8.724;2022-08-21T00:24:52;13.18;;;1.83;;
68212;SDS011;55035;47.792;8.724;2022-08-21T00:27:19;13.70;;;2.05;;
68212;SDS011;55035;47.792;8.724;2022-08-21T00:29:47;8.67;;;2.00;;
68212;SDS011;55035;47.792;8.724;2022-08-21T00:32:19;6.40;;;1.60;;
68212;SDS011;55035;47.792;8.724;2022-08-21T00:34:46;7.53;;;1.70;;
68212;SDS011;55035;47.792;8.724;2022-08-21T00:37:12;8.07;;;1.80;;
68212;SDS011;55035;47.792;8.724;2022-08-21T00:39:39;10.32;;;1.85;;
68212;SDS011;55035;47.792;8.724;2022-08-21T00:42:06;11.77;;;1.90;;
68212;SDS011;55035;47.792;8.724;2022-08-21T00:44:33;15.40;;;2.00;;
68212;SDS011;55035;47.792;8.724;2022-08-21T00:47:01;12.55;;;2.55;;
68212;SDS011;55035;47.792;8.724;2022-08-21T00:49:28;8.73;;;2.30;;
68212;SDS011;55035;47.792;8.724;2022-08-21T00:51:55;13.43;;;2.40;;
68212;SDS011;55035;47.792;8.724;2022-08-21T00:54:24;18.27;;;2.33;;
68212;SDS011;55035;47.792;8.724;2022-08-21T00:56:51;19.85;;;2.22;;
68212;SDS011;55035;47.792;8.724;2022-08-21T00:59:19;23.48;;;2.20;;
68212;SDS011;55035;47.792;8.724;2022-08-21T01:01:47;19.55;;;2.20;;
68212;SDS011;55035;47.792;8.724;2022-08-21T01:04:16;14.02;;;1.90;;
68212;SDS011;55035;47.792;8.724;2022-08-21T01:06:43;14.87;;;1.67;;
68212;SDS011;55035;47.792;8.724;2022-08-21T01:09:11;11.85;;;1.42;;
68212;SDS011;55035;47.792;8.724;2022-08-21T01:11:37;13.07;;;1.48;;
68212;SDS011;55035;47.792;8.724;2022-08-21T01:14:04;12.13;;;1.35;;
68212;SDS011;55035;47.792;8.724;2022-08-21T01:16:31;30.23;;;1.92;;
68212;SDS011;55035;47.792;8.724;2022-08-21T01:19:00;27.80;;;2.10;;
68212;SDS011;55035;47.792;8.724;2022-08-21T01:21:28;62.25;;;2.78;;
68212;SDS011;55035;47.792;8.724;2022-08-21T01:23:55;51.20;;;2.85;;
68212;SDS011;55035;47.792;8.724;2022-08-21T01:26:24;32.80;;;1.92;;
68212;SDS011;55035;47.792;8.724;2022-08-21T01:28:53;13.63;;;1.80;;
68212;SDS011;55035;47.792;8.724;2022-08-21T01:31:23;8.87;;;1.30;;
68212;SDS011;55035;47.792;8.724;2022-08-21T01:33:52;17.55;;;1.60;;
68212;SDS011;55035;47.792;8.724;2022-08-21T01:36:19;8.15;;;1.58;;
68212;SDS011;55035;47.792;8.724;2022-08-21T01:38:47;7.90;;;1.40;;
68212;SDS011;55035;47.792;8.724;2022-08-21T01:41:15;13.90;;;1.90;;
68212;SDS011;55035;47.792;8.724;2022-08-21T01:43:42;16.50;;;1.90;;
68212;SDS011;55035;47.792;8.724;2022-08-21T01:46:10;27.10;;;1.75;;
68212;SDS011;55035;47.792;8.724;2022-08-21T01:48:37;22.65;;;1.95;;
68212;SDS011;55035;47.792;8.724;2022-08-21T01:51:05;7.97;;;2.60;;
68212;SDS011;55035;47.792;8.724;2022-08-21T01:53:32;8.98;;;2.53;;
68212;SDS011;55035;47.792;8.724;2022-08-21T01:56:03;9.13;;;2.10;;
68212;SDS011;55035;47.792;8.724;2022-08-21T01:58:29;9.98;;;2.65;;
68212;SDS011;55035;47.792;8.724;2022-08-21T02:00:56;8.35;;;2.45;;
68212;SDS011;55035;47.792;8.724;2022-08-21T02:03:23;12.63;;;2.45;;
68212;SDS011;55035;47.792;8.724;2022-08-21T02:05:50;12.80;;;2.47;;
68212;SDS011;55035;47.792;8.724;2022-08-21T02:08:17;19.03;;;2.27;;
68212;SDS011;55035;47.792;8.724;2022-08-21T02:10:43;17.30;;;2.17;;
68212;SDS011;55035;47.792;8.724;2022-08-21T02:13:13;14.20;;;2.00;;
68212;SDS011;55035;47.792;8.724;2022-08-21T02:15:40;10.15;;;2.22;;
68212;SDS011;55035;47.792;8.724;2022-08-21T02:18:07;12.82;;;1.90;;
68212;SDS011;55035;47.792;8.724;2022-08-21T02:20:35;18.70;;;2.30;;
68212;SDS011;55035;47.792;8.724;2022-08-21T02:23:03;10.65;;;1.92;;
68212;SDS011;55035;47.792;8.724;2022-08-21T02:25:30;11.52;;;2.20;;
68212;SDS011;55035;47.792;8.724;2022-08-21T02:27:57;15.00;;;2.20;;
68212;SDS011;55035;47.792;8.724;2022-08-21T02:30:27;9.38;;;1.63;;
68212;SDS011;55035;47.792;8.724;2022-08-21T02:32:54;8.73;;;1.60;;
68212;SDS011;55035;47.792;8.724;2022-08-21T02:35:21;14.57;;;1.70;;
68212;SDS011;55035;47.792;8.724;2022-08-21T02:37:49;8.68;;;1.60;;
68212;SDS011;55035;47.792;8.724;2022-08-21T02:40:18;8.73;;;2.05;;
68212;SDS011;55035;47.792;8.724;2022-08-21T02:42:45;6.60;;;1.52;;
68212;SDS011;55035;47.792;8.724;2022-08-21T02:45:12;26.93;;;1.90;;
68212;SDS011;55035;47.792;8.724;2022-08-21T02:47:40;11.27;;;1.80;;
68212;SDS011;55035;47.792;8.724;2022-08-21T02:50:12;14.00;;;1.98;;
68212;SDS011;55035;47.792;8.724;2022-08-21T02:52:39;33.03;;;2.80;;
68212;SDS011;55035;47.792;8.724;2022-08-21T02:55:06;9.38;;;2.10;;
68212;SDS011;55035;47.792;8.724;2022-08-21T02:57:33;7.43;;;1.90;;
68212;SDS011;55035;47.792;8.724;2022-08-21T02:59:59;6.65;;;2.00;;
68212;SDS011;55035;47.792;8.724;2022-08-21T03:02:26;9.90;;;2.08;;
68212;SDS011;55035;47.792;8.724;2022-08-21T03:04:54;8.50;;;2.10;;
68212;SDS011;55035;47.792;8.724;2022-08-21T03:07:21;6.68;;;2.03;;
68212;SDS011;55035;47.792;8.724;2022-08-21T03:09:48;9.63;;;2.13;;
68212;SDS011;55035;47.792;8.724;2022-08-21T03:12:15;8.15;;;1.90;;
68212;SDS011;55035;47.792;8.724;2022-08-21T03:14:41;8.45;;;2.25;;
68212;SDS011;55035;47.792;8.724;2022-08-21T03:17:08;21.05;;;1.98;;
68212;SDS011;55035;47.792;8.724;2022-08-21T03:19:35;38.08;;;3.17;;
68212;SDS011;55035;47.792;8.724;2022-08-21T03:22:03;45.47;;;3.17;;
68212;SDS011;55035;47.792;8.724;2022-08-21T03:24:30;29.42;;;3.17;;
68212;SDS011;55035;47.792;8.724;2022-08-21T03:26:57;27.98;;;2.63;;
68212;SDS011;55035;47.792;8.724;2022-08-21T03:29:24;30.15;;;2.92;;
68212;SDS011;55035;47.792;8.724;2022-08-21T03:31:50;21.88;;;4.85;;
68212;SDS011;55035;47.792;8.724;2022-08-21T03:34:19;12.53;;;2.83;;
68212;SDS011;55035;47.792;8.724;2022-08-21T03:36:47;9.75;;;2.55;;
68212;SDS011;55035;47.792;8.724;2022-08-21T03:39:15;11.68;;;3.17;;
68212;SDS011;55035;47.792;8.724;2022-08-21T03:41:42;10.88;;;3.20;;
68212;SDS011;55035;47.792;8.724;2022-08-21T03:44:09;9.10;;;2.90;;
68212;SDS011;55035;47.792;8.724;2022-08-21T03:46:35;8.37;;;2.40;;
68212;SDS011;55035;47.792;8.724;2022-08-21T03:49:02;9.63;;;2.63;;
68212;SDS011;55035;47.792;8.724;2022-08-21T03:51:29;8.40;;;2.85;;
68212;SDS011;55035;47.792;8.724;2022-08-21T03:53:57;12.75;;;2.88;;
68212;SDS011;55035;47.792;8.724;2022-08-21T03:56:25;16.05;;;3.40;;
68212;SDS011;55035;47.792;8.724;2022-08-21T03:58:52;10.03;;;2.47;;
68212;SDS011;55035;47.792;8.724;2022-08-21T04:01:19;8.48;;;2.33;;
68212;SDS011;55035;47.792;8.724;2022-08-21T04:03:46;8.95;;;2.38;;
68212;SDS011;55035;47.792;8.724;2022-08-21T04:06:13;7.32;;;2.47;;
68212;SDS011;55035;47.792;8.724;2022-08-21T04:08:39;26.42;;;13.65;;
68212;SDS011;55035;47.792;8.724;2022-08-21T04:11:08;19.70;;;9.13;;
68212;SDS011;55035;47.792;8.724;2022-08-21T04:13:38;12.35;;;3.72;;
68212;SDS011;55035;47.792;8.724;2022-08-21T04:16:06;25.90;;;3.00;;
68212;SDS011;55035;47.792;8.724;2022-08-21T04:18:33;53.50;;;4.25;;
68212;SDS011;55035;47.792;8.724;2022-08-21T04:21:00;18.75;;;3.17;;
68212;SDS011;55035;47.792;8.724;2022-08-21T04:23:28;12.43;;;2.70;;
68212;SDS011;55035;47.792;8.724;2022-08-21T04:25:55;16.80;;;4.05;;
68212;SDS011;55035;47.792;8.724;2022-08-21T04:28:23;15.15;;;4.55;;
68212;SDS011;55035;47.792;8.724;2022-08-21T04:30:52;15.95;;;4.18;;
68212;SDS011;55035;47.792;8.724;2022-08-21T04:33:18;18.85;;;4.40;;
68212;SDS011;55035;47.792;8.724;2022-08-21T04:35:45;13.17;;;3.83;;
68212;SDS011;55035;47.792;8.724;2022-08-21T04:38:12;34.75;;;4.25;;
68212;SDS011;55035;47.792;8.724;2022-08-21T04:40:39;23.20;;;3.25;;
68212;SDS011;55035;47.792;8.724;2022-08-21T04:43:07;17.33;;;3.10;;
68212;SDS011;55035;47.792;8.724;2022-08-21T04:45:36;13.20;;;3.80;;
68212;SDS011;55035;47.792;8.724;2022-08-21T04:48:05;10.93;;;4.00;;
68212;SDS011;55035;47.792;8.724;2022-08-21T04:50:35;9.45;;;3.70;;
68212;SDS011;55035;47.792;8.724;2022-08-21T04:53:04;11.43;;;3.47;;
68212;SDS011;55035;47.792;8.724;2022-08-21T04:55:31;9.95;;;3.50;;
68212;SDS011;55035;47.792;8.724;2022-08-21T04:57:58;11.23;;;3.50;;
68212;SDS011;55035;47.792;8.724;2022-08-21T05:00:25;9.93;;;3.17;;
68212;SDS011;55035;47.792;8.724;2022-08-21T05:02:52;12.88;;;3.25;;
68212;SDS011;55035;47.792;8.724;2022-08-21T05:05:23;11.25;;;3.22;;
68212;SDS011;55035;47.792;8.724;2022-08-21T05:07:50;9.23;;;3.22;;
68212;SDS011;55035;47.792;8.724;2022-08-21T05:10:18;10.43;;;3.58;;
68212;SDS011;55035;47.792;8.724;2022-08-21T05:12:45;9.20;;;3.40;;
68212;SDS011;55035;47.792;8.724;2022-08-21T05:15:12;7.70;;;3.03;;
68212;SDS011;55035;47.792;8.724;2022-08-21T05:17:39;8.80;;;2.65;;
68212;SDS011;55035;47.792;8.724;2022-08-21T05:20:06;9.77;;;2.72;;
68212;SDS011;55035;47.792;8.724;2022-08-21T05:22:35;11.52;;;3.05;;
68212;SDS011;55035;47.792;8.724;2022-08-21T05:25:01;6.40;;;2.27;;
68212;SDS011;55035;47.792;8.724;2022-08-21T05:27:28;6.28;;;1.95;;
68212;SDS011;55035;47.792;8.724;2022-08-21T05:29:55;9.85;;;3.08;;
68212;SDS011;55035;47.792;8.724;2022-08-21T05:32:22;7.50;;;2.25;;
68212;SDS011;55035;47.792;8.724;2022-08-21T05:34:49;6.60;;;2.25;;
68212;SDS011;55035;47.792;8.724;2022-08-21T05:37:16;6.20;;;2.00;;
68212;SDS011;55035;47.792;8.724;2022-08-21T05:39:44;6.10;;;2.13;;
68212;SDS011;55035;47.792;8.724;2022-08-21T05:42:11;7.95;;;2.30;;
68212;SDS011;55035;47.792;8.724;2022-08-21T05:44:38;6.05;;;2.17;;
68212;SDS011;55035;47.792;8.724;2022-08-21T05:47:05;9.77;;;4.60;;
68212;SDS011;55035;47.792;8.724;2022-08-21T05:49:31;17.17;;;6.40;;
68212;SDS011;55035;47.792;8.724;2022-08-21T05:51:58;7.05;;;2.88;;
68212;SDS011;55035;47.792;8.724;2022-08-21T05:54:25;5.30;;;2.08;;
68212;SDS011;55035;47.792;8.724;2022-08-21T05:56:54;5.38;;;1.77;;
68212;SDS011;55035;47.792;8.724;2022-08-21T05:59:20;5.43;;;1.88;;
68212;SDS011;55035;47.792;8.724;2022-08-21T06:01:47;4.77;;;1.50;;
68212;SDS011;55035;47.792;8.724;2022-08-21T06:04:14;4.70;;;1.65;;
68212;SDS011;55035;47.792;8.724;2022-08-21T06:06:41;6.28;;;1.95;;
68212;SDS011;55035;47.792;8.724;2022-08-21T06:09:08;6.65;;;1.77;;
68212;SDS011;55035;47.792;8.724;2022-08-21T06:11:35;6.88;;;1.92;;
68212;SDS011;55035;47.792;8.724;2022-08-21T06:14:03;5.13;;;1.70;;
68212;SDS011;55035;47.792;8.724;2022-08-21T06:16:31;5.43;;;1.70;;
68212;SDS011;55035;47.792;8.724;2022-08-21T06:18:58;5.00;;;1.60;;
68212;SDS011;55035;47.792;8.724;2022-08-21T06:21:25;5.25;;;1.50;;
68212;SDS011;55035;47.792;8.724;2022-08-21T06:23:52;4.93;;;1.60;;
68212;SDS011;55035;47.792;8.724;2022-08-21T06:26:18;5.50;;;1.40;;
68212;SDS011;55035;47.792;8.724;2022-08-21T06:28:46;4.93;;;1.92;;
68212;SDS011;55035;47.792;8.724;2022-08-21T06:31:15;5.18;;;1.80;;
68212;SDS011;55035;47.792;8.724;2022-08-21T06:33:44;4.50;;;1.60;;
68212;SDS011;55035;47.792;8.724;2022-08-21T06:36:12;5.53;;;1.67;;
68212;SDS011;55035;47.792;8.724;2022-08-21T06:38:39;5.03;;;1.37;;
68212;SDS011;55035;47.792;8.724;2022-08-21T06:41:06;6.03;;;1.70;;
68212;SDS011;55035;47.792;8.724;2022-08-21T06:43:33;5.68;;;1.75;;
68212;SDS011;55035;47.792;8.724;2022-08-21T06:46:00;5.18;;;1.90;;
68212;SDS011;55035;47.792;8.724;2022-08-21T06:48:29;6.05;;;2.00;;
68212;SDS011;55035;47.792;8.724;2022-08-21T06:50:57;5.23;;;2.27;;
68212;SDS011;55035;47.792;8.724;2022-08-21T06:53:25;5.40;;;2.20;;
68212;SDS011;55035;47.792;8.724;2022-08-21T06:55:52;6.60;;;2.92;;
68212;SDS011;55035;47.792;8.724;2022-08-21T06:58:18;7.65;;;2.80;;
68212;SDS011;55035;47.792;8.724;2022-08-21T07:00:46;7.07;;;2.80;;
68212;SDS011;55035;47.792;8.724;2022-08-21T07:03:18;6.87;;;2.60;;
68212;SDS011;55035;47.792;8.724;2022-08-21T07:05:46;6.82;;;2.90;;
68212;SDS011;55035;47.792;8.724;2022-08-21T07:08:13;6.22;;;3.05;;
68212;SDS011;55035;47.792;8.724;2022-08-21T07:10:40;6.05;;;2.58;;
68212;SDS011;55035;47.792;8.724;2022-08-21T07:13:07;6.30;;;2.75;;
68212;SDS011;55035;47.792;8.724;2022-08-21T07:15:34;7.50;;;2.20;;
68212;SDS011;55035;47.792;8.724;2022-08-21T07:18:00;6.88;;;3.25;;
68212;SDS011;55035;47.792;8.724;2022-08-21T07:20:28;7.38;;;2.90;;
68212;SDS011;55035;47.792;8.724;2022-08-21T07:22:56;7.82;;;3.17;;
68212;SDS011;55035;47.792;8.724;2022-08-21T07:25:24;8.18;;;3.47;;
68212;SDS011;55035;47.792;8.724;2022-08-21T07:27:51;9.47;;;3.33;;
68212;SDS011;55035;47.792;8.724;2022-08-21T07:30:18;6.95;;;3.30;;
68212;SDS011;55035;47.792;8.724;2022-08-21T07:32:45;8.13;;;2.45;;
68212;SDS011;55035;47.792;8.724;2022-08-21T07:35:14;7.88;;;3.40;;
68212;SDS011;55035;47.792;8.724;2022-08-21T07:37:41;7.68;;;3.60;;
68212;SDS011;55035;47.792;8.724;2022-08-21T07:40:10;8.03;;;4.07;;
68212;SDS011;55035;47.792;8.724;2022-08-21T07:42:39;9.50;;;3.72;;
68212;SDS011;55035;47.792;8.724;2022-08-21T07:45:06;8.80;;;4.15;;
68212;SDS011;55035;47.792;8.724;2022-08-21T07:47:37;8.63;;;4.18;;
68212;SDS011;55035;47.792;8.724;2022-08-21T07:50:05;10.13;;;4.63;;
68212;SDS011;55035;47.792;8.724;2022-08-21T07:52:32;8.63;;;4.10;;
68212;SDS011;55035;47.792;8.724;2022-08-21T07:54:59;8.88;;;4.30;;
68212;SDS011;55035;47.792;8.724;2022-08-21T07:57:28;10.23;;;4.63;;
68212;SDS011;55035;47.792;8.724;2022-08-21T07:59:55;9.27;;;4.97;;
68212;SDS011;55035;47.792;8.724;2022-08-21T08:02:22;10.05;;;4.70;;
68212;SDS011;55035;47.792;8.724;2022-08-21T08:04:52;8.90;;;4.20;;
68212;SDS011;55035;47.792;8.724;2022-08-21T08:07:19;8.43;;;4.10;;
68212;SDS011;55035;47.792;8.724;2022-08-21T08:09:46;8.93;;;4.72;;
68212;SDS011;55035;47.792;8.724;2022-08-21T08:12:13;8.23;;;3.90;;
68212;SDS011;55035;47.792;8.724;2022-08-21T08:14:41;8.57;;;4.00;;
68212;SDS011;55035;47.792;8.724;2022-08-21T08:17:08;9.27;;;3.97;;
68212;SDS011;55035;47.792;8.724;2022-08-21T08:19:34;8.45;;;3.53;;
68212;SDS011;55035;47.792;8.724;2022-08-21T08:22:01;7.80;;;3.75;;
68212;SDS011;55035;47.792;8.724;2022-08-21T08:24:28;9.60;;;3.95;;
68212;SDS011;55035;47.792;8.724;2022-08-21T08:26:55;10.02;;;5.20;;
68212;SDS011;55035;47.792;8.724;2022-08-21T08:29:23;9.63;;;5.10;;
68212;SDS011;55035;47.792;8.724;2022-08-21T08:31:51;10.45;;;4.82;;
68212;SDS011;55035;47.792;8.724;2022-08-21T08:34:18;8.93;;;4.40;;
68212;SDS011;55035;47.792;8.724;2022-08-21T08:36:47;10.18;;;4.57;;
68212;SDS011;55035;47.792;8.724;2022-08-21T08:39:15;9.07;;;4.78;;
68212;SDS011;55035;47.792;8.724;2022-08-21T08:41:42;9.13;;;4.77;;
68212;SDS011;55035;47.792;8.724;2022-08-21T08:44:13;11.20;;;4.18;;
68212;SDS011;55035;47.792;8.724;2022-08-21T08:46:41;8.57;;;4.35;;
68212;SDS011;55035;47.792;8.724;2022-08-21T08:49:13;7.90;;;4.35;;
68212;SDS011;55035;47.792;8.724;2022-08-21T08:51:44;9.23;;;4.28;;
68212;SDS011;55035;47.792;8.724;2022-08-21T08:54:15;7.93;;;4.13;;
68212;SDS011;55035;47.792;8.724;2022-08-21T08:56:44;7.68;;;3.20;;
68212;SDS011;55035;47.792;8.724;2022-08-21T08:59:13;8.30;;;4.10;;
68212;SDS011;55035;47.792;8.724;2022-08-21T09:01:42;7.47;;;3.72;;
68212;SDS011;55035;47.792;8.724;2022-08-21T09:04:10;7.55;;;4.07;;
68212;SDS011;55035;47.792;8.724;2022-08-21T09:09:25;8.38;;;4.57;;
68212;SDS011;55035;47.792;8.724;2022-08-21T09:11:57;8.00;;;4.55;;
68212;SDS011;55035;47.792;8.724;2022-08-21T09:14:26;9.10;;;4.13;;
68212;SDS011;55035;47.792;8.724;2022-08-21T09:17:00;7.57;;;4.07;;
68212;SDS011;55035;47.792;8.724;2022-08-21T09:19:38;8.03;;;4.33;;
68212;SDS011;55035;47.792;8.724;2022-08-21T09:22:14;7.90;;;4.32;;
68212;SDS011;55035;47.792;8.724;2022-08-21T09:24:46;7.70;;;4.07;;
68212;SDS011;55035;47.792;8.724;2022-08-21T09:27:14;8.15;;;4.43;;
68212;SDS011;55035;47.792;8.724;2022-08-21T09:29:43;7.97;;;4.03;;
68212;SDS011;55035;47.792;8.724;2022-08-21T09:32:14;8.70;;;4.50;;
68212;SDS011;55035;47.792;8.724;2022-08-21T09:34:43;8.80;;;4.47;;
68212;SDS011;55035;47.792;8.724;2022-08-21T09:37:21;7.63;;;4.40;;
68212;SDS011;55035;47.792;8.724;2022-08-21T09:39:49;8.43;;;4.05;;
68212;SDS011;55035;47.792;8.724;2022-08-21T09:42:21;10.23;;;4.25;;
68212;SDS011;55035;47.792;8.724;2022-08-21T09:44:48;6.67;;;3.20;;
68212;SDS011;55035;47.792;8.724;2022-08-21T09:47:18;7.85;;;3.80;;
68212;SDS011;55035;47.792;8.724;2022-08-21T09:49:46;8.80;;;4.40;;
68212;SDS011;55035;47.792;8.724;2022-08-21T09:52:16;7.75;;;4.15;;
68212;SDS011;55035;47.792;8.724;2022-08-21T09:54:43;8.07;;;4.22;;
68212;SDS011;55035;47.792;8.724;2022-08-21T09:57:14;7.93;;;4.00;;
68212;SDS011;55035;47.792;8.724;2022-08-21T10:00:10;6.85;;;3.75;;
68212;SDS011;55035;47.792;8.724;2022-08-21T10:02:41;7.70;;;4.00;;
68212;SDS011;55035;47.792;8.724;2022-08-21T10:05:15;7.90;;;3.70;;
68212;SDS011;55035;47.792;8.724;2022-08-21T10:07:42;7.47;;;3.65;;
68212;SDS011;55035;47.792;8.724;2022-08-21T10:10:14;10.73;;;3.70;;
68212;SDS011;55035;47.792;8.724;2022-08-21T10:12:47;7.35;;;3.63;;
68212;SDS011;55035;47.792;8.724;2022-08-21T10:15:18;6.95;;;4.00;;
68212;SDS011;55035;47.792;8.724;2022-08-21T10:17:49;8.10;;;2.92;;
68212;SDS011;55035;47.792;8.724;2022-08-21T10:20:20;7.35;;;3.40;;
68212;SDS011;55035;47.792;8.724;2022-08-21T10:22:48;6.40;;;2.80;;
68212;SDS011;55035;47.792;8.724;2022-08-21T10:25:20;7.97;;;3.45;;
68212;SDS011;55035;47.792;8.724;2022-08-21T10:27:55;7.68;;;3.35;;
68212;SDS011;55035;47.792;8.724;2022-08-21T10:30:28;7.38;;;3.20;;
68212;SDS011;55035;47.792;8.724;2022-08-21T10:33:10;6.85;;;3.15;;
68212;SDS011;55035;47.792;8.724;2022-08-21T10:35:40;7.47;;;3.50;;
68212;SDS011;55035;47.792;8.724;2022-08-21T10:38:21;7.82;;;3.47;;
68212;SDS011;55035;47.792;8.724;2022-08-21T10:40:51;7.50;;;3.17;;
68212;SDS011;55035;47.792;8.724;2022-08-21T10:43:25;6.38;;;2.92;;
68212;SDS011;55035;47.792;8.724;2022-08-21T10:45:58;6.30;;;2.72;;
68212;SDS011;55035;47.792;8.724;2022-08-21T10:48:29;6.43;;;2.67;;
68212;SDS011;55035;47.792;8.724;2022-08-21T10:51:02;7.93;;;2.58;;
68212;SDS011;55035;47.792;8.724;2022-08-21T10:53:37;7.18;;;3.15;;
68212;SDS011;55035;47.792;8.724;2022-08-21T10:56:10;7.72;;;2.45;;
68212;SDS011;55035;47.792;8.724;2022-08-21T10:58:40;6.38;;;2.88;;
68212;SDS011;55035;47.792;8.724;2022-08-21T11:01:11;5.83;;;2.20;;
68212;SDS011;55035;47.792;8.724;2022-08-21T11:03:41;6.47;;;2.75;;
68212;SDS011;55035;47.792;8.724;2022-08-21T11:06:08;7.88;;;3.65;;
68212;SDS011;55035;47.792;8.724;2022-08-21T11:08:38;6.57;;;2.58;;
68212;SDS011;55035;47.792;8.724;2022-08-21T11:11:08;6.28;;;3.00;;
68212;SDS011;55035;47.792;8.724;2022-08-21T11:13:38;7.10;;;2.47;;
68212;SDS011;55035;47.792;8.724;2022-08-21T11:16:10;8.15;;;3.40;;
68212;SDS011;55035;47.792;8.724;2022-08-21T11:18:41;5.95;;;2.67;;
68212;SDS011;55035;47.792;8.724;2022-08-21T11:21:15;6.32;;;3.10;;
68212;SDS011;55035;47.792;8.724;2022-08-21T11:23:47;6.50;;;3.20;;
68212;SDS011;55035;47.792;8.724;2022-08-21T11:26:17;6.57;;;2.30;;
68212;SDS011;55035;47.792;8.724;2022-08-21T11:28:46;6.45;;;2.67;;
68212;SDS011;55035;47.792;8.724;2022-08-21T11:31:25;6.25;;;2.47;;
68212;SDS011;55035;47.792;8.724;2022-08-21T11:33:58;7.00;;;2.85;;
68212;SDS011;55035;47.792;8.724;2022-08-21T11:36:29;6.30;;;2.50;;
68212;SDS011;55035;47.792;8.724;2022-08-21T11:39:02;5.60;;;2.93;;
68212;SDS011;55035;47.792;8.724;2022-08-21T11:41:35;6.72;;;2.35;;
68212;SDS011;55035;47.792;8.724;2022-08-21T11:44:10;6.00;;;2.85;;
68212;SDS011;55035;47.792;8.724;2022-08-21T11:46:44;7.05;;;3.00;;
68212;SDS011;55035;47.792;8.724;2022-08-21T11:49:18;6.00;;;2.58;;
68212;SDS011;55035;47.792;8.724;2022-08-21T11:51:48;7.47;;;2.70;;
68212;SDS011;55035;47.792;8.724;2022-08-21T11:54:20;6.03;;;2.70;;
68212;SDS011;55035;47.792;8.724;2022-08-21T11:56:51;5.47;;;2.42;;
68212;SDS011;55035;47.792;8.724;2022-08-21T11:59:20;5.35;;;1.88;;
68212;SDS011;55035;47.792;8.724;2022-08-21T12:01:52;6.72;;;2.30;;
68212;SDS011;55035;47.792;8.724;2022-08-21T12:04:22;5.93;;;2.57;;
68212;SDS011;55035;47.792;8.724;2022-08-21T12:06:52;5.53;;;2.40;;
68212;SDS011;55035;47.792;8.724;2022-08-21T12:09:30;6.05;;;2.70;;
68212;SDS011;55035;47.792;8.724;2022-08-21T12:12:00;6.15;;;2.30;;
68212;SDS011;55035;47.792;8.724;2022-08-21T12:14:35;5.43;;;2.50;;
68212;SDS011;55035;47.792;8.724;2022-08-21T12:17:05;6.00;;;2.50;;
68212;SDS011;55035;47.792;8.724;2022-08-21T12:19:32;5.50;;;2.10;;
68212;SDS011;55035;47.792;8.724;2022-08-21T12:22:07;5.65;;;2.53;;
68212;SDS011;55035;47.792;8.724;2022-08-21T12:24:36;6.68;;;2.50;;
68212;SDS011;55035;47.792;8.724;2022-08-21T12:27:13;5.95;;;2.53;;
68212;SDS011;55035;47.792;8.724;2022-08-21T12:29:45;5.80;;;2.63;;
68212;SDS011;55035;47.792;8.724;2022-08-21T12:32:22;5.00;;;2.30;;
68212;SDS011;55035;47.792;8.724;2022-08-21T12:34:50;6.07;;;2.72;;
68212;SDS011;55035;47.792;8.724;2022-08-21T12:37:19;5.50;;;2.55;;
68212;SDS011;55035;47.792;8.724;2022-08-21T12:39:47;5.93;;;2.75;;
68212;SDS011;55035;47.792;8.724;2022-08-21T12:42:16;5.40;;;2.73;;
68212;SDS011;55035;47.792;8.724;2022-08-21T12:44:43;5.40;;;2.55;;
68212;SDS011;55035;47.792;8.724;2022-08-21T12:47:14;7.80;;;2.65;;
68212;SDS011;55035;47.792;8.724;2022-08-21T12:49:45;5.80;;;2.90;;
68212;SDS011;55035;47.792;8.724;2022-08-21T12:52:16;5.93;;;2.88;;
68212;SDS011;55035;47.792;8.724;2022-08-21T12:54:47;5.43;;;2.57;;
68212;SDS011;55035;47.792;8.724;2022-08-21T12:57:18;5.60;;;2.45;;
68212;SDS011;55035;47.792;8.724;2022-08-21T12:59:45;5.88;;;2.38;;
68212;SDS011;55035;47.792;8.724;2022-08-21T13:02:15;5.45;;;2.17;;
68212;SDS011;55035;47.792;8.724;2022-08-21T13:04:45;5.45;;;2.13;;
68212;SDS011;55035;47.792;8.724;2022-08-21T13:07:13;6.77;;;2.50;;
68212;SDS011;55035;47.792;8.724;2022-08-21T13:09:44;5.97;;;2.25;;
68212;SDS011;55035;47.792;8.724;2022-08-21T13:12:13;5.63;;;2.30;;
68212;SDS011;55035;47.792;8.724;2022-08-21T13:14:42;6.80;;;2.05;;
68212;SDS011;55035;47.792;8.724;2022-08-21T13:17:12;5.65;;;2.17;;
68212;SDS011;55035;47.792;8.724;2022-08-21T13:19:40;6.47;;;1.80;;
68212;SDS011;55035;47.792;8.724;2022-08-21T13:22:13;5.95;;;1.88;;
68212;SDS011;55035;47.792;8.724;2022-08-21T13:24:40;5.85;;;1.90;;
68212;SDS011;55035;47.792;8.724;2022-08-21T13:27:21;6.18;;;1.92;;
68212;SDS011;55035;47.792;8.724;2022-08-21T13:29:49;5.15;;;2.40;;
68212;SDS011;55035;47.792;8.724;2022-08-21T13:32:29;5.20;;;1.83;;
68212;SDS011;55035;47.792;8.724;2022-08-21T13:34:57;5.80;;;1.73;;
68212;SDS011;55035;47.792;8.724;2022-08-21T13:37:26;6.10;;;1.88;;
68212;SDS011;55035;47.792;8.724;2022-08-21T13:39:54;5.18;;;1.60;;
68212;SDS011;55035;47.792;8.724;2022-08-21T13:42:21;6.50;;;1.90;;
68212;SDS011;55035;47.792;8.724;2022-08-21T13:44:50;5.67;;;1.60;;
68212;SDS011;55035;47.792;8.724;2022-08-21T13:47:18;9.75;;;1.92;;
68212;SDS011;55035;47.792;8.724;2022-08-21T13:49:46;6.75;;;1.83;;
68212;SDS011;55035;47.792;8.724;2022-08-21T13:52:14;5.90;;;1.70;;
68212;SDS011;55035;47.792;8.724;2022-08-21T13:54:43;5.30;;;1.90;;
68212;SDS011;55035;47.792;8.724;2022-08-21T13:57:17;5.83;;;1.70;;
68212;SDS011;55035;47.792;8.724;2022-08-21T13:59:45;5.63;;;1.77;;
68212;SDS011;55035;47.792;8.724;2022-08-21T14:02:13;4.72;;;1.50;;
68212;SDS011;55035;47.792;8.724;2022-08-21T14:04:42;6.60;;;1.70;;
68212;SDS011;55035;47.792;8.724;2022-08-21T14:07:16;5.35;;;1.80;;
68212;SDS011;55035;47.792;8.724;2022-08-21T14:09:46;6.40;;;1.77;;
68212;SDS011;55035;47.792;8.724;2022-08-21T14:12:14;5.90;;;1.98;;
68212;SDS011;55035;47.792;8.724;2022-08-21T14:14:41;6.82;;;2.00;;
68212;SDS011;55035;47.792;8.724;2022-08-21T14:17:09;5.75;;;1.63;;
68212;SDS011;55035;47.792;8.724;2022-08-21T14:19:37;5.82;;;1.95;;
68212;SDS011;55035;47.792;8.724;2022-08-21T14:22:27;6.67;;;1.73;;
68212;SDS011;55035;47.792;8.724;2022-08-21T14:25:02;5.45;;;1.70;;
68212;SDS011;55035;47.792;8.724;2022-08-21T14:27:32;5.85;;;1.75;;
68212;SDS011;55035;47.792;8.724;2022-08-21T14:30:00;5.82;;;1.83;;
68212;SDS011;55035;47.792;8.724;2022-08-21T14:32:28;6.20;;;1.80;;
68212;SDS011;55035;47.792;8.724;2022-08-21T14:34:56;6.20;;;2.07;;
68212;SDS011;55035;47.792;8.724;2022-08-21T14:37:23;4.78;;;1.50;;
68212;SDS011;55035;47.792;8.724;2022-08-21T14:39:50;5.55;;;1.83;;
68212;SDS011;55035;47.792;8.724;2022-08-21T14:42:20;6.28;;;1.52;;
68212;SDS011;55035;47.792;8.724;2022-08-21T14:44:47;5.85;;;1.80;;
68212;SDS011;55035;47.792;8.724;2022-08-21T14:47:14;6.27;;;2.00;;
68212;SDS011;55035;47.792;8.724;2022-08-21T14:49:41;5.47;;;1.70;;
68212;SDS011;55035;47.792;8.724;2022-08-21T14:52:09;4.65;;;1.80;;
68212;SDS011;55035;47.792;8.724;2022-08-21T14:54:36;5.63;;;1.70;;